sensor_id;sensor_type;location;lat;lon;timestamp;temperature;humidity
16064;DHT22;8136;53.172;8.256;2022-09-13T00:00:41;18.60;99.90
16064;DHT22;8136;53.172;8.256;2022-09-13T00:03:08;18.80;99.90
16064;DHT22;8136;53.172;8.256;2022-09-13T00:05:36;18.80;99.90
16064;DHT22;8136;53.172;8.256;2022-09-13T00:08:03;18.70;99.90
16064;DHT22;8136;53.172;8.256;2022-09-13T00:10:32;18.60;99.90
16064;DHT22;8136;53.172;8.256;2022-09-13T00:13:00;18.50;99.90
16064;DHT22;8136;53.172;8.256;2022-09-13T00:15:28;18.40;99.90
16064;DHT22;8136;53.172;8.256;2022-09-13T00:17:55;18.40;99.90
16064;DHT22;8136;53.172;8.256;2022-09-13T00:20:22;18.30;99.90
16064;DHT22;8136;53.172;8.256;2022-09-13T00:22:49;18.20;99.90
16064;DHT22;8136;53.172;8.256;2022-09-13T00:25:16;18.20;99.90
16064;DHT22;8136;53.172;8.256;2022-09-13T00:27:43;18.10;99.90
16064;DHT22;8136;53.172;8.256;2022-09-13T00:30:12;18.00;99.90
16064;DHT22;8136;53.172;8.256;2022-09-13T00:32:40;18.00;99.90
16064;DHT22;8136;53.172;8.256;2022-09-13T00:35:07;18.00;99.90
16064;DHT22;8136;53.172;8.256;2022-09-13T00:37:34;18.10;99.90
16064;DHT22;8136;53.172;8.256;2022-09-13T00:40:02;18.00;99.90
16064;DHT22;8136;53.172;8.256;2022-09-13T00:42:30;18.10;99.90
16064;DHT22;8136;53.172;8.256;2022-09-13T00:44:59;18.10;99.90
16064;DHT22;8136;53.172;8.256;2022-09-13T00:47:32;18.00;99.90
16064;DHT22;8136;53.172;8.256;2022-09-13T00:50:05;18.00;99.90
16064;DHT22;8136;53.172;8.256;2022-09-13T00:52:33;18.00;99.90
16064;DHT22;8136;53.172;8.256;2022-09-13T00:55:05;18.00;99.90
16064;DHT22;8136;53.172;8.256;2022-09-13T00:57:34;18.00;99.90
16064;DHT22;8136;53.172;8.256;2022-09-13T01:00:05;18.00;99.90
16064;DHT22;8136;53.172;8.256;2022-09-13T01:02:39;17.90;99.90
16064;DHT22;8136;53.172;8.256;2022-09-13T01:05:10;17.90;99.90
16064;DHT22;8136;53.172;8.256;2022-09-13T01:07:37;17.90;99.90
16064;DHT22;8136;53.172;8.256;2022-09-13T01:10:06;17.90;99.90
16064;DHT22;8136;53.172;8.256;2022-09-13T01:12:41;17.90;99.90
16064;DHT22;8136;53.172;8.256;2022-09-13T01:15:09;17.80;99.90
16064;DHT22;8136;53.172;8.256;2022-09-13T01:17:37;17.90;99.90
16064;DHT22;8136;53.172;8.256;2022-09-13T01:20:06;17.80;99.90
16064;DHT22;8136;53.172;8.256;2022-09-13T01:29:04;17.80;99.90
16064;DHT22;8136;53.172;8.256;2022-09-13T01:31:36;17.80;99.90
16064;DHT22;8136;53.172;8.256;2022-09-13T01:34:15;17.70;99.90
16064;DHT22;8136;53.172;8.256;2022-09-13T01:36:53;17.70;99.90
16064;DHT22;8136;53.172;8.256;2022-09-13T01:39:32;17.70;99.90
16064;DHT22;8136;53.172;8.256;2022-09-13T01:42:10;17.80;99.90
16064;DHT22;8136;53.172;8.256;2022-09-13T01:44:58;17.80;99.90
16064;DHT22;8136;53.172;8.256;2022-09-13T01:47:31;17.80;99.90
16064;DHT22;8136;53.172;8.256;2022-09-13T01:50:09;17.80;99.90
16064;DHT22;8136;53.172;8.256;2022-09-13T01:52:43;17.70;99.90
16064;DHT22;8136;53.172;8.256;2022-09-13T01:55:19;17.70;99.90
16064;DHT22;8136;53.172;8.256;2022-09-13T01:57:53;17.80;99.90
16064;DHT22;8136;53.172;8.256;2022-09-13T02:00:23;17.80;99.90
16064;DHT22;8136;53.172;8.256;2022-09-13T02:02:54;17.70;99.90
16064;DHT22;8136;53.172;8.256;2022-09-13T02:05:30;17.70;99.90
16064;DHT22;8136;53.172;8.256;2022-09-13T02:08:00;17.70;99.90
16064;DHT22;8136;53.172;8.256;2022-09-13T02:10:33;17.70;99.90
16064;DHT22;8136;53.172;8.256;2022-09-13T02:13:05;17.70;99.90
16064;DHT22;8136;53.172;8.256;2022-09-13T02:15:36;17.70;99.90
16064;DHT22;8136;53.172;8.256;2022-09-13T02:18:08;17.70;99.90
16064;DHT22;8136;53.172;8.256;2022-09-13T02:20:38;17.60;99.90
16064;DHT22;8136;53.172;8.256;2022-09-13T02:23:09;17.60;99.90
16064;DHT22;8136;53.172;8.256;2022-09-13T02:25:38;17.60;99.90
16064;DHT22;8136;53.172;8.256;2022-09-13T02:28:10;17.60;99.90
16064;DHT22;8136;53.172;8.256;2022-09-13T02:30:40;17.70;99.90
16064;DHT22;8136;53.172;8.256;2022-09-13T02:36:00;17.60;99.90
16064;DHT22;8136;53.172;8.256;2022-09-13T02:38:30;17.70;99.90
16064;DHT22;8136;53.172;8.256;2022-09-13T02:41:04;17.60;99.90
16064;DHT22;8136;53.172;8.256;2022-09-13T02:43:34;17.70;99.90
16064;DHT22;8136;53.172;8.256;2022-09-13T02:46:14;17.70;99.90
16064;DHT22;8136;53.172;8.256;2022-09-13T02:48:54;17.60;99.90
16064;DHT22;8136;53.172;8.256;2022-09-13T02:51:29;17.60;99.90
16064;DHT22;8136;53.172;8.256;2022-09-13T02:54:03;17.60;99.90
16064;DHT22;8136;53.172;8.256;2022-09-13T02:56:39;17.60;99.90
16064;DHT22;8136;53.172;8.256;2022-09-13T02:59:12;17.60;99.90
16064;DHT22;8136;53.172;8.256;2022-09-13T03:01:41;17.50;99.90
16064;DHT22;8136;53.172;8.256;2022-09-13T03:04:11;17.50;99.90
16064;DHT22;8136;53.172;8.256;2022-09-13T03:06:39;17.60;99.90
16064;DHT22;8136;53.172;8.256;2022-09-13T03:09:07;17.60;99.90
16064;DHT22;8136;53.172;8.256;2022-09-13T03:11:57;17.60;99.90
16064;DHT22;8136;53.172;8.256;2022-09-13T03:14:36;17.50;99.90
16064;DHT22;8136;53.172;8.256;2022-09-13T03:17:17;17.60;99.90
16064;DHT22;8136;53.172;8.256;2022-09-13T03:20:02;17.60;99.90
16064;DHT22;8136;53.172;8.256;2022-09-13T03:23:19;17.60;99.90
16064;DHT22;8136;53.172;8.256;2022-09-13T03:26:10;17.50;99.90
16064;DHT22;8136;53.172;8.256;2022-09-13T03:28:46;17.50;99.90
16064;DHT22;8136;53.172;8.256;2022-09-13T03:31:20;17.50;99.90
16064;DHT22;8136;53.172;8.256;2022-09-13T03:33:53;17.50;99.90
16064;DHT22;8136;53.172;8.256;2022-09-13T03:36:29;17.50;99.90
16064;DHT22;8136;53.172;8.256;2022-09-13T03:39:02;17.60;99.90
16064;DHT22;8136;53.172;8.256;2022-09-13T03:41:37;17.60;99.90
16064;DHT22;8136;53.172;8.256;2022-09-13T03:44:07;17.60;99.90
16064;DHT22;8136;53.172;8.256;2022-09-13T03:46:38;17.60;99.90
16064;DHT22;8136;53.172;8.256;2022-09-13T03:49:07;17.60;99.90
16064;DHT22;8136;53.172;8.256;2022-09-13T03:51:36;17.60;99.90
16064;DHT22;8136;53.172;8.256;2022-09-13T03:54:06;17.60;99.90
16064;DHT22;8136;53.172;8.256;2022-09-13T03:56:34;17.50;99.90
16064;DHT22;8136;53.172;8.256;2022-09-13T03:59:01;17.50;99.90
16064;DHT22;8136;53.172;8.256;2022-09-13T04:01:27;17.50;99.90
16064;DHT22;8136;53.172;8.256;2022-09-13T04:03:55;17.50;99.90
16064;DHT22;8136;53.172;8.256;2022-09-13T04:06:22;17.50;99.90
16064;DHT22;8136;53.172;8.256;2022-09-13T04:08:50;17.50;99.90
16064;DHT22;8136;53.172;8.256;2022-09-13T04:11:17;17.50;99.90
16064;DHT22;8136;53.172;8.256;2022-09-13T04:13:45;17.50;99.90
16064;DHT22;8136;53.172;8.256;2022-09-13T04:16:12;17.50;99.90
16064;DHT22;8136;53.172;8.256;2022-09-13T04:18:39;17.40;99.90
16064;DHT22;8136;53.172;8.256;2022-09-13T04:21:07;17.50;99.90
16064;DHT22;8136;53.172;8.256;2022-09-13T04:23:34;17.50;99.90
16064;DHT22;8136;53.172;8.256;2022-09-13T04:26:03;17.50;99.90
16064;DHT22;8136;53.172;8.256;2022-09-13T04:28:30;17.50;99.90
16064;DHT22;8136;53.172;8.256;2022-09-13T04:30:57;17.50;99.90
16064;DHT22;8136;53.172;8.256;2022-09-13T04:33:24;17.50;99.90
16064;DHT22;8136;53.172;8.256;2022-09-13T04:35:56;17.50;99.90
16064;DHT22;8136;53.172;8.256;2022-09-13T04:38:23;17.50;99.90
16064;DHT22;8136;53.172;8.256;2022-09-13T04:40:53;17.50;99.90
16064;DHT22;8136;53.172;8.256;2022-09-13T04:43:22;17.60;99.90
16064;DHT22;8136;53.172;8.256;2022-09-13T04:45:50;17.50;99.90
16064;DHT22;8136;53.172;8.256;2022-09-13T04:48:17;17.50;99.90
16064;DHT22;8136;53.172;8.256;2022-09-13T04:50:44;17.60;99.90
16064;DHT22;8136;53.172;8.256;2022-09-13T04:53:12;17.60;99.90
16064;DHT22;8136;53.172;8.256;2022-09-13T04:55:38;17.60;99.90
16064;DHT22;8136;53.172;8.256;2022-09-13T04:58:06;17.50;99.90
16064;DHT22;8136;53.172;8.256;2022-09-13T05:00:34;17.60;99.90
16064;DHT22;8136;53.172;8.256;2022-09-13T05:03:01;17.50;99.90
16064;DHT22;8136;53.172;8.256;2022-09-13T05:05:28;17.50;99.90
16064;DHT22;8136;53.172;8.256;2022-09-13T05:07:56;17.60;99.90
16064;DHT22;8136;53.172;8.256;2022-09-13T05:10:23;17.60;99.90
16064;DHT22;8136;53.172;8.256;2022-09-13T05:12:51;17.60;99.90
16064;DHT22;8136;53.172;8.256;2022-09-13T05:15:18;17.60;99.90
16064;DHT22;8136;53.172;8.256;2022-09-13T05:17:46;17.60;99.90
16064;DHT22;8136;53.172;8.256;2022-09-13T05:20:13;17.60;99.90
16064;DHT22;8136;53.172;8.256;2022-09-13T05:22:40;17.60;99.90
16064;DHT22;8136;53.172;8.256;2022-09-13T05:25:07;17.70;99.90
16064;DHT22;8136;53.172;8.256;2022-09-13T05:27:34;17.60;99.90
16064;DHT22;8136;53.172;8.256;2022-09-13T05:30:01;17.60;99.90
16064;DHT22;8136;53.172;8.256;2022-09-13T05:32:30;17.70;99.90
16064;DHT22;8136;53.172;8.256;2022-09-13T05:34:58;17.60;99.90
16064;DHT22;8136;53.172;8.256;2022-09-13T05:37:25;17.50;99.90
16064;DHT22;8136;53.172;8.256;2022-09-13T05:39:51;17.60;99.90
16064;DHT22;8136;53.172;8.256;2022-09-13T05:42:18;17.60;99.90
16064;DHT22;8136;53.172;8.256;2022-09-13T05:44:45;17.60;99.90
16064;DHT22;8136;53.172;8.256;2022-09-13T05:47:12;17.60;99.90
16064;DHT22;8136;53.172;8.256;2022-09-13T05:49:39;17.60;99.90
16064;DHT22;8136;53.172;8.256;2022-09-13T05:52:07;17.50;99.90
16064;DHT22;8136;53.172;8.256;2022-09-13T05:54:34;17.60;99.90
16064;DHT22;8136;53.172;8.256;2022-09-13T05:57:02;17.60;99.90
16064;DHT22;8136;53.172;8.256;2022-09-13T05:59:30;17.60;99.90
16064;DHT22;8136;53.172;8.256;2022-09-13T06:01:57;17.60;99.90
16064;DHT22;8136;53.172;8.256;2022-09-13T06:04:24;17.60;99.90
16064;DHT22;8136;53.172;8.256;2022-09-13T06:06:50;17.50;99.90
16064;DHT22;8136;53.172;8.256;2022-09-13T06:09:19;17.50;99.90
16064;DHT22;8136;53.172;8.256;2022-09-13T06:11:45;17.60;99.90
16064;DHT22;8136;53.172;8.256;2022-09-13T06:14:21;17.60;99.90
16064;DHT22;8136;53.172;8.256;2022-09-13T06:16:48;17.70;99.90
16064;DHT22;8136;53.172;8.256;2022-09-13T06:19:15;17.70;99.90
16064;DHT22;8136;53.172;8.256;2022-09-13T06:21:42;17.70;99.90
16064;DHT22;8136;53.172;8.256;2022-09-13T06:24:09;17.60;99.90
16064;DHT22;8136;53.172;8.256;2022-09-13T06:26:37;17.70;99.90
16064;DHT22;8136;53.172;8.256;2022-09-13T06:29:04;17.70;99.90
16064;DHT22;8136;53.172;8.256;2022-09-13T06:31:31;17.70;99.90
16064;DHT22;8136;53.172;8.256;2022-09-13T06:33:59;17.70;99.90
16064;DHT22;8136;53.172;8.256;2022-09-13T06:36:27;17.80;99.90
16064;DHT22;8136;53.172;8.256;2022-09-13T06:38:58;17.80;99.90
16064;DHT22;8136;53.172;8.256;2022-09-13T06:41:26;17.80;99.90
16064;DHT22;8136;53.172;8.256;2022-09-13T06:44:18;17.80;99.90
16064;DHT22;8136;53.172;8.256;2022-09-13T06:47:15;17.80;99.90
16064;DHT22;8136;53.172;8.256;2022-09-13T06:50:39;17.90;99.90
16064;DHT22;8136;53.172;8.256;2022-09-13T06:53:44;17.90;99.90
16064;DHT22;8136;53.172;8.256;2022-09-13T06:56:12;17.90;99.90
16064;DHT22;8136;53.172;8.256;2022-09-13T06:58:41;18.00;99.90
16064;DHT22;8136;53.172;8.256;2022-09-13T07:01:11;18.00;99.90
16064;DHT22;8136;53.172;8.256;2022-09-13T07:03:41;18.00;99.90
16064;DHT22;8136;53.172;8.256;2022-09-13T07:06:09;18.00;99.90
16064;DHT22;8136;53.172;8.256;2022-09-13T07:08:37;18.00;99.90
16064;DHT22;8136;53.172;8.256;2022-09-13T07:11:06;18.00;99.90
16064;DHT22;8136;53.172;8.256;2022-09-13T07:13:34;18.10;99.90
16064;DHT22;8136;53.172;8.256;2022-09-13T07:16:02;18.10;99.90
16064;DHT22;8136;53.172;8.256;2022-09-13T07:18:31;18.20;99.90
16064;DHT22;8136;53.172;8.256;2022-09-13T07:20:59;18.30;99.90
16064;DHT22;8136;53.172;8.256;2022-09-13T07:23:28;18.30;99.90
16064;DHT22;8136;53.172;8.256;2022-09-13T07:25:55;18.30;99.90
16064;DHT22;8136;53.172;8.256;2022-09-13T07:28:27;18.50;99.90
16064;DHT22;8136;53.172;8.256;2022-09-13T07:30:54;18.40;99.90
16064;DHT22;8136;53.172;8.256;2022-09-13T07:33:23;18.30;99.90
16064;DHT22;8136;53.172;8.256;2022-09-13T07:35:55;18.20;99.90
16064;DHT22;8136;53.172;8.256;2022-09-13T07:38:22;18.20;99.90
16064;DHT22;8136;53.172;8.256;2022-09-13T07:40:53;18.20;99.90
16064;DHT22;8136;53.172;8.256;2022-09-13T07:43:21;18.20;99.90
16064;DHT22;8136;53.172;8.256;2022-09-13T07:45:55;18.10;99.90
16064;DHT22;8136;53.172;8.256;2022-09-13T07:48:23;18.10;99.90
16064;DHT22;8136;53.172;8.256;2022-09-13T07:50:57;18.00;99.90
16064;DHT22;8136;53.172;8.256;2022-09-13T07:53:25;18.10;99.90
16064;DHT22;8136;53.172;8.256;2022-09-13T07:55:52;18.00;99.90
16064;DHT22;8136;53.172;8.256;2022-09-13T07:58:19;17.90;99.90
16064;DHT22;8136;53.172;8.256;2022-09-13T08:00:46;18.10;99.90
16064;DHT22;8136;53.172;8.256;2022-09-13T08:03:12;18.10;99.90
16064;DHT22;8136;53.172;8.256;2022-09-13T08:05:40;18.10;99.90
16064;DHT22;8136;53.172;8.256;2022-09-13T08:08:08;18.10;99.90
16064;DHT22;8136;53.172;8.256;2022-09-13T08:10:35;18.20;99.90
16064;DHT22;8136;53.172;8.256;2022-09-13T08:13:02;18.30;99.90
16064;DHT22;8136;53.172;8.256;2022-09-13T08:15:29;18.40;99.90
16064;DHT22;8136;53.172;8.256;2022-09-13T08:17:56;18.40;99.90
16064;DHT22;8136;53.172;8.256;2022-09-13T08:20:22;18.40;99.90
16064;DHT22;8136;53.172;8.256;2022-09-13T08:22:49;18.50;99.90
16064;DHT22;8136;53.172;8.256;2022-09-13T08:25:17;18.70;99.90
16064;DHT22;8136;53.172;8.256;2022-09-13T08:27:44;18.80;99.90
16064;DHT22;8136;53.172;8.256;2022-09-13T08:30:12;18.80;99.90
16064;DHT22;8136;53.172;8.256;2022-09-13T08:32:38;18.90;99.90
16064;DHT22;8136;53.172;8.256;2022-09-13T08:35:06;19.10;99.90
16064;DHT22;8136;53.172;8.256;2022-09-13T08:37:32;19.00;99.90
16064;DHT22;8136;53.172;8.256;2022-09-13T08:40:00;19.10;99.90
16064;DHT22;8136;53.172;8.256;2022-09-13T08:42:37;19.20;99.90
16064;DHT22;8136;53.172;8.256;2022-09-13T08:45:10;19.20;99.90
16064;DHT22;8136;53.172;8.256;2022-09-13T08:47:43;19.30;99.90
16064;DHT22;8136;53.172;8.256;2022-09-13T08:50:16;19.30;99.90
16064;DHT22;8136;53.172;8.256;2022-09-13T08:52:51;19.30;99.90
16064;DHT22;8136;53.172;8.256;2022-09-13T08:55:30;19.30;99.90
16064;DHT22;8136;53.172;8.256;2022-09-13T08:58:04;19.30;99.90
16064;DHT22;8136;53.172;8.256;2022-09-13T09:00:38;19.40;99.90
16064;DHT22;8136;53.172;8.256;2022-09-13T09:03:22;19.30;99.90
16064;DHT22;8136;53.172;8.256;2022-09-13T09:05:51;19.30;99.90
16064;DHT22;8136;53.172;8.256;2022-09-13T09:08:26;19.30;99.90
16064;DHT22;8136;53.172;8.256;2022-09-13T09:10:57;19.40;99.90
16064;DHT22;8136;53.172;8.256;2022-09-13T09:13:28;19.40;99.90
16064;DHT22;8136;53.172;8.256;2022-09-13T09:16:00;19.50;99.90
16064;DHT22;8136;53.172;8.256;2022-09-13T09:18:32;19.60;99.90
16064;DHT22;8136;53.172;8.256;2022-09-13T09:21:13;19.70;99.90
16064;DHT22;8136;53.172;8.256;2022-09-13T09:23:47;19.90;99.90
16064;DHT22;8136;53.172;8.256;2022-09-13T09:26:17;20.00;99.90
16064;DHT22;8136;53.172;8.256;2022-09-13T09:28:49;20.10;99.90
16064;DHT22;8136;53.172;8.256;2022-09-13T09:31:21;20.20;99.90
16064;DHT22;8136;53.172;8.256;2022-09-13T09:34:06;20.30;99.90
16064;DHT22;8136;53.172;8.256;2022-09-13T09:36:37;20.30;99.90
16064;DHT22;8136;53.172;8.256;2022-09-13T09:39:10;20.30;99.90
16064;DHT22;8136;53.172;8.256;2022-09-13T09:41:37;20.30;99.90
16064;DHT22;8136;53.172;8.256;2022-09-13T09:44:18;20.30;99.90
16064;DHT22;8136;53.172;8.256;2022-09-13T09:46:49;20.40;99.90
16064;DHT22;8136;53.172;8.256;2022-09-13T09:49:18;20.40;99.90
16064;DHT22;8136;53.172;8.256;2022-09-13T09:52:05;20.50;99.90
16064;DHT22;8136;53.172;8.256;2022-09-13T09:54:34;20.60;99.90
16064;DHT22;8136;53.172;8.256;2022-09-13T09:57:02;20.70;99.90
16064;DHT22;8136;53.172;8.256;2022-09-13T09:59:33;20.80;99.90
16064;DHT22;8136;53.172;8.256;2022-09-13T10:02:10;21.00;99.90
16064;DHT22;8136;53.172;8.256;2022-09-13T10:04:37;21.00;99.90
16064;DHT22;8136;53.172;8.256;2022-09-13T10:07:24;21.10;99.90
16064;DHT22;8136;53.172;8.256;2022-09-13T10:13:58;20.80;99.90
16064;DHT22;8136;53.172;8.256;2022-09-13T10:23:33;21.00;99.90
16064;DHT22;8136;53.172;8.256;2022-09-13T10:26:25;21.20;99.90
16064;DHT22;8136;53.172;8.256;2022-09-13T10:28:58;21.40;99.90
16064;DHT22;8136;53.172;8.256;2022-09-13T10:31:28;21.40;99.90
16064;DHT22;8136;53.172;8.256;2022-09-13T10:33:59;21.40;99.90
16064;DHT22;8136;53.172;8.256;2022-09-13T10:36:33;21.40;99.90
16064;DHT22;8136;53.172;8.256;2022-09-13T10:39:33;21.40;99.90
16064;DHT22;8136;53.172;8.256;2022-09-13T10:42:04;21.40;99.90
16064;DHT22;8136;53.172;8.256;2022-09-13T10:44:36;21.30;99.90
16064;DHT22;8136;53.172;8.256;2022-09-13T10:47:10;21.40;99.90
16064;DHT22;8136;53.172;8.256;2022-09-13T10:49:43;21.40;99.90
16064;DHT22;8136;53.172;8.256;2022-09-13T10:56:17;21.20;99.90
16064;DHT22;8136;53.172;8.256;2022-09-13T10:58:46;21.10;99.90
16064;DHT22;8136;53.172;8.256;2022-09-13T11:01:37;21.10;99.90
16064;DHT22;8136;53.172;8.256;2022-09-13T11:04:55;21.20;99.90
16064;DHT22;8136;53.172;8.256;2022-09-13T11:08:01;21.30;99.90
16064;DHT22;8136;53.172;8.256;2022-09-13T11:10:37;21.20;99.90
16064;DHT22;8136;53.172;8.256;2022-09-13T11:13:15;21.10;99.90
16064;DHT22;8136;53.172;8.256;2022-09-13T11:15:50;21.10;99.90
16064;DHT22;8136;53.172;8.256;2022-09-13T11:18:35;21.10;99.90
16064;DHT22;8136;53.172;8.256;2022-09-13T11:21:18;21.10;99.90
16064;DHT22;8136;53.172;8.256;2022-09-13T11:24:15;21.10;99.90
16064;DHT22;8136;53.172;8.256;2022-09-13T11:27:11;21.10;99.90
16064;DHT22;8136;53.172;8.256;2022-09-13T11:29:58;21.10;99.90
16064;DHT22;8136;53.172;8.256;2022-09-13T11:32:40;21.10;99.90
16064;DHT22;8136;53.172;8.256;2022-09-13T11:35:29;21.20;99.90
16064;DHT22;8136;53.172;8.256;2022-09-13T11:38:26;21.40;99.90
16064;DHT22;8136;53.172;8.256;2022-09-13T12:05:15;22.40;99.90
16064;DHT22;8136;53.172;8.256;2022-09-13T17:40:14;19.70;99.90
16064;DHT22;8136;53.172;8.256;2022-09-13T17:42:42;19.60;99.90
16064;DHT22;8136;53.172;8.256;2022-09-13T17:45:09;19.50;99.90
16064;DHT22;8136;53.172;8.256;2022-09-13T17:47:36;19.40;99.90
16064;DHT22;8136;53.172;8.256;2022-09-13T17:50:03;19.40;99.90
16064;DHT22;8136;53.172;8.256;2022-09-13T17:52:30;19.40;99.90
16064;DHT22;8136;53.172;8.256;2022-09-13T17:54:57;19.30;99.90
16064;DHT22;8136;53.172;8.256;2022-09-13T17:57:25;19.20;99.90
16064;DHT22;8136;53.172;8.256;2022-09-13T17:59:52;19.30;99.90
16064;DHT22;8136;53.172;8.256;2022-09-13T18:02:20;19.30;99.90
16064;DHT22;8136;53.172;8.256;2022-09-13T18:04:48;19.20;99.90
16064;DHT22;8136;53.172;8.256;2022-09-13T18:07:16;19.10;99.90
16064;DHT22;8136;53.172;8.256;2022-09-13T18:09:43;18.90;99.90
16064;DHT22;8136;53.172;8.256;2022-09-13T18:12:10;19.00;99.90
16064;DHT22;8136;53.172;8.256;2022-09-13T18:14:38;19.00;99.90
16064;DHT22;8136;53.172;8.256;2022-09-13T18:17:05;19.00;99.90
16064;DHT22;8136;53.172;8.256;2022-09-13T18:19:37;18.80;99.90
16064;DHT22;8136;53.172;8.256;2022-09-13T18:22:04;18.70;99.90
16064;DHT22;8136;53.172;8.256;2022-09-13T18:24:31;18.60;99.90
16064;DHT22;8136;53.172;8.256;2022-09-13T18:26:59;18.50;99.90
16064;DHT22;8136;53.172;8.256;2022-09-13T18:29:26;18.40;99.90
16064;DHT22;8136;53.172;8.256;2022-09-13T18:31:57;18.40;99.90
16064;DHT22;8136;53.172;8.256;2022-09-13T18:34:24;18.40;99.90
16064;DHT22;8136;53.172;8.256;2022-09-13T18:36:51;18.40;99.90
16064;DHT22;8136;53.172;8.256;2022-09-13T18:39:19;18.30;99.90
16064;DHT22;8136;53.172;8.256;2022-09-13T18:41:47;18.40;99.90
16064;DHT22;8136;53.172;8.256;2022-09-13T18:44:15;18.20;99.90
16064;DHT22;8136;53.172;8.256;2022-09-13T18:46:42;18.20;99.90
16064;DHT22;8136;53.172;8.256;2022-09-13T18:49:12;18.20;99.90
16064;DHT22;8136;53.172;8.256;2022-09-13T18:51:40;18.10;99.90
16064;DHT22;8136;53.172;8.256;2022-09-13T18:54:11;18.20;99.90
16064;DHT22;8136;53.172;8.256;2022-09-13T18:56:39;18.20;99.90
16064;DHT22;8136;53.172;8.256;2022-09-13T18:59:06;18.10;99.90
16064;DHT22;8136;53.172;8.256;2022-09-13T19:01:36;18.20;99.90
16064;DHT22;8136;53.172;8.256;2022-09-13T19:04:05;18.20;99.90
16064;DHT22;8136;53.172;8.256;2022-09-13T19:06:35;18.20;99.90
16064;DHT22;8136;53.172;8.256;2022-09-13T19:09:03;18.00;99.90
16064;DHT22;8136;53.172;8.256;2022-09-13T19:11:32;17.90;99.90
16064;DHT22;8136;53.172;8.256;2022-09-13T19:13:59;17.70;99.90
16064;DHT22;8136;53.172;8.256;2022-09-13T19:16:26;17.70;99.90
16064;DHT22;8136;53.172;8.256;2022-09-13T19:18:53;17.60;99.90
16064;DHT22;8136;53.172;8.256;2022-09-13T19:21:23;17.60;99.90
16064;DHT22;8136;53.172;8.256;2022-09-13T19:23:51;17.70;99.90
16064;DHT22;8136;53.172;8.256;2022-09-13T19:26:21;17.60;99.90
16064;DHT22;8136;53.172;8.256;2022-09-13T19:28:49;17.50;99.90
16064;DHT22;8136;53.172;8.256;2022-09-13T19:31:19;17.40;99.90
16064;DHT22;8136;53.172;8.256;2022-09-13T19:33:46;17.30;99.90
16064;DHT22;8136;53.172;8.256;2022-09-13T19:36:14;17.30;99.90
16064;DHT22;8136;53.172;8.256;2022-09-13T19:38:41;17.30;99.90
16064;DHT22;8136;53.172;8.256;2022-09-13T19:41:12;17.20;99.90
16064;DHT22;8136;53.172;8.256;2022-09-13T19:43:41;17.20;99.90
16064;DHT22;8136;53.172;8.256;2022-09-13T19:46:10;17.20;99.90
16064;DHT22;8136;53.172;8.256;2022-09-13T19:48:38;17.20;99.90
16064;DHT22;8136;53.172;8.256;2022-09-13T19:51:07;17.20;99.90
16064;DHT22;8136;53.172;8.256;2022-09-13T19:53:35;17.10;99.90
16064;DHT22;8136;53.172;8.256;2022-09-13T19:56:02;17.20;99.90
16064;DHT22;8136;53.172;8.256;2022-09-13T19:58:31;17.30;99.90
16064;DHT22;8136;53.172;8.256;2022-09-13T20:01:02;17.20;99.90
16064;DHT22;8136;53.172;8.256;2022-09-13T20:03:30;17.10;99.90
16064;DHT22;8136;53.172;8.256;2022-09-13T20:06:00;17.10;99.90
16064;DHT22;8136;53.172;8.256;2022-09-13T20:08:28;17.10;99.90
16064;DHT22;8136;53.172;8.256;2022-09-13T20:10:55;16.90;99.90
16064;DHT22;8136;53.172;8.256;2022-09-13T20:13:23;16.90;99.90
16064;DHT22;8136;53.172;8.256;2022-09-13T20:15:51;16.90;99.90
16064;DHT22;8136;53.172;8.256;2022-09-13T20:18:18;16.90;99.90
16064;DHT22;8136;53.172;8.256;2022-09-13T20:20:45;16.80;99.90
16064;DHT22;8136;53.172;8.256;2022-09-13T20:23:13;16.80;99.90
16064;DHT22;8136;53.172;8.256;2022-09-13T20:25:40;16.80;99.90
16064;DHT22;8136;53.172;8.256;2022-09-13T20:28:07;16.80;99.90
16064;DHT22;8136;53.172;8.256;2022-09-13T20:30:34;16.80;99.90
16064;DHT22;8136;53.172;8.256;2022-09-13T20:33:03;16.80;99.90
16064;DHT22;8136;53.172;8.256;2022-09-13T20:35:30;16.80;99.90
16064;DHT22;8136;53.172;8.256;2022-09-13T20:37:58;16.80;99.90
16064;DHT22;8136;53.172;8.256;2022-09-13T20:40:24;16.80;99.90
16064;DHT22;8136;53.172;8.256;2022-09-13T20:42:51;16.80;99.90
16064;DHT22;8136;53.172;8.256;2022-09-13T20:45:18;16.80;99.90
16064;DHT22;8136;53.172;8.256;2022-09-13T20:47:46;16.70;99.90
16064;DHT22;8136;53.172;8.256;2022-09-13T20:50:14;16.70;99.90
16064;DHT22;8136;53.172;8.256;2022-09-13T20:52:41;16.70;99.90
16064;DHT22;8136;53.172;8.256;2022-09-13T20:55:08;16.60;99.90
16064;DHT22;8136;53.172;8.256;2022-09-13T20:57:35;16.50;99.90
16064;DHT22;8136;53.172;8.256;2022-09-13T21:00:03;16.50;99.90
16064;DHT22;8136;53.172;8.256;2022-09-13T21:02:30;16.40;99.90
16064;DHT22;8136;53.172;8.256;2022-09-13T21:04:57;16.40;99.90
16064;DHT22;8136;53.172;8.256;2022-09-13T21:07:25;16.40;99.90
16064;DHT22;8136;53.172;8.256;2022-09-13T21:10:09;16.50;99.90
16064;DHT22;8136;53.172;8.256;2022-09-13T21:12:36;16.40;99.90
16064;DHT22;8136;53.172;8.256;2022-09-13T21:15:04;16.40;99.90
16064;DHT22;8136;53.172;8.256;2022-09-13T21:17:31;16.20;99.90
16064;DHT22;8136;53.172;8.256;2022-09-13T21:19:58;16.20;99.90
16064;DHT22;8136;53.172;8.256;2022-09-13T21:22:26;16.20;99.90
16064;DHT22;8136;53.172;8.256;2022-09-13T21:24:53;16.20;99.90
16064;DHT22;8136;53.172;8.256;2022-09-13T21:27:20;16.20;99.90
16064;DHT22;8136;53.172;8.256;2022-09-13T21:29:47;16.20;99.90
16064;DHT22;8136;53.172;8.256;2022-09-13T21:32:14;16.20;99.90
16064;DHT22;8136;53.172;8.256;2022-09-13T21:34:40;16.10;99.90
16064;DHT22;8136;53.172;8.256;2022-09-13T21:37:07;16.10;99.90
16064;DHT22;8136;53.172;8.256;2022-09-13T21:39:36;16.10;99.90
16064;DHT22;8136;53.172;8.256;2022-09-13T21:42:03;16.00;99.90
16064;DHT22;8136;53.172;8.256;2022-09-13T21:44:30;15.90;99.90
16064;DHT22;8136;53.172;8.256;2022-09-13T21:46:57;15.90;99.90
16064;DHT22;8136;53.172;8.256;2022-09-13T21:49:24;15.90;99.90
16064;DHT22;8136;53.172;8.256;2022-09-13T21:51:52;15.80;99.90
16064;DHT22;8136;53.172;8.256;2022-09-13T21:54:19;15.80;99.90
16064;DHT22;8136;53.172;8.256;2022-09-13T21:56:50;15.80;99.90
16064;DHT22;8136;53.172;8.256;2022-09-13T21:59:19;15.80;99.90
16064;DHT22;8136;53.172;8.256;2022-09-13T22:01:48;15.70;99.90
16064;DHT22;8136;53.172;8.256;2022-09-13T22:04:17;15.80;99.90
16064;DHT22;8136;53.172;8.256;2022-09-13T22:06:45;15.70;99.90
16064;DHT22;8136;53.172;8.256;2022-09-13T22:09:13;15.70;99.90
16064;DHT22;8136;53.172;8.256;2022-09-13T22:11:42;15.70;99.90
16064;DHT22;8136;53.172;8.256;2022-09-13T22:14:12;15.60;99.90
16064;DHT22;8136;53.172;8.256;2022-09-13T22:16:41;15.60;99.90
16064;DHT22;8136;53.172;8.256;2022-09-13T22:19:10;15.50;99.90
16064;DHT22;8136;53.172;8.256;2022-09-13T22:21:40;15.60;99.90
16064;DHT22;8136;53.172;8.256;2022-09-13T22:24:08;15.50;99.90
16064;DHT22;8136;53.172;8.256;2022-09-13T22:26:38;15.50;99.90
16064;DHT22;8136;53.172;8.256;2022-09-13T22:29:06;15.40;99.90